createdAt,value
2018-04-27T00:01:59.578Z,4.20
2018-04-27T00:05:05.483Z,4.20
2018-04-27T00:08:11.196Z,4.10
2018-04-27T00:11:16.868Z,4.20
2018-04-27T00:14:22.667Z,4.20
2018-04-27T00:17:28.589Z,4.20
2018-04-27T00:20:34.213Z,4.20
2018-04-27T00:23:40.126Z,4.00
2018-04-27T00:26:46.016Z,4.00
2018-04-27T00:29:52.012Z,4.00
2018-04-27T00:32:58.249Z,3.90
2018-04-27T00:36:04.859Z,4.00
2018-04-27T00:39:10.673Z,4.10
2018-04-27T00:42:16.536Z,4.00
2018-04-27T00:45:22.466Z,3.90
2018-04-27T00:48:28.430Z,3.80
2018-04-27T00:51:34.648Z,3.70
2018-04-27T00:54:40.555Z,3.60
2018-04-27T00:57:46.632Z,3.40
2018-04-27T01:00:52.509Z,3.40
2018-04-27T01:03:58.438Z,3.40
2018-04-27T01:07:04.156Z,3.30
2018-04-27T01:10:10.579Z,3.30
2018-04-27T01:13:17.185Z,3.20
2018-04-27T01:16:23.317Z,3.10
2018-04-27T01:19:29.244Z,3.10
2018-04-27T01:22:35.335Z,3.20
2018-04-27T01:25:41.636Z,3.20
2018-04-27T01:28:47.649Z,3.20
2018-04-27T01:31:53.728Z,3.10
2018-04-27T01:34:59.687Z,3.20
2018-04-27T01:38:05.565Z,3.10
2018-04-27T01:41:11.451Z,3.00
2018-04-27T01:44:17.483Z,3.00
2018-04-27T01:47:23.382Z,3.00
2018-04-27T01:50:29.245Z,3.00
2018-04-27T01:53:35.404Z,3.10
2018-04-27T01:56:41.233Z,3.20
2018-04-27T01:59:48.080Z,3.00
2018-04-27T02:02:53.988Z,3.00
2018-04-27T02:06:00.154Z,2.90
2018-04-27T02:09:06.108Z,3.00
2018-04-27T02:12:11.940Z,3.00
2018-04-27T02:15:17.929Z,2.90
2018-04-27T02:18:24.705Z,2.80
2018-04-27T02:21:30.668Z,2.80
2018-04-27T02:24:36.708Z,2.80
2018-04-27T02:27:42.681Z,2.70
2018-04-27T02:30:48.646Z,2.70
2018-04-27T02:33:54.546Z,2.70
2018-04-27T02:37:00.610Z,2.80
2018-04-27T02:40:06.519Z,2.80
2018-04-27T02:43:15.257Z,2.70
2018-04-27T02:46:20.956Z,2.70
2018-04-27T02:49:26.846Z,2.80
2018-04-27T02:52:32.934Z,2.80
2018-04-27T02:55:39.097Z,2.70
2018-04-27T02:58:45.843Z,2.70
2018-04-27T03:01:51.788Z,2.70
2018-04-27T03:04:57.770Z,2.70
2018-04-27T03:08:04.084Z,2.60
2018-04-27T03:11:10.711Z,2.60
2018-04-27T03:14:16.667Z,2.60
2018-04-27T03:17:22.697Z,2.60
2018-04-27T03:20:29.636Z,2.60
2018-04-27T03:23:35.495Z,2.60
2018-04-27T03:26:41.861Z,2.50
2018-04-27T03:29:47.805Z,2.50
2018-04-27T03:32:54.069Z,2.60
2018-04-27T03:36:00.235Z,2.60
2018-04-27T03:39:06.930Z,2.60
2018-04-27T03:42:13.609Z,2.60
2018-04-27T03:45:19.787Z,2.70
2018-04-27T03:48:25.678Z,2.60
2018-04-27T03:51:33.163Z,2.50
2018-04-27T03:54:40.850Z,2.30
2018-04-27T03:57:46.917Z,2.30
2018-04-27T04:01:05.762Z,2.30
2018-04-27T04:04:23.657Z,2.40
2018-04-27T04:07:29.434Z,2.30
2018-04-27T04:10:35.386Z,2.20
2018-04-27T04:13:42.307Z,2.20
2018-04-27T04:16:48.392Z,2.20
2018-04-27T04:19:54.419Z,2.30
2018-04-27T04:23:00.752Z,2.30
2018-04-27T04:26:06.900Z,2.40
2018-04-27T04:29:12.699Z,2.30
2018-04-27T04:32:18.544Z,2.30
2018-04-27T04:35:24.513Z,2.40
2018-04-27T04:38:31.548Z,2.40
2018-04-27T04:41:37.468Z,2.40
2018-04-27T04:44:44.302Z,2.50
2018-04-27T04:47:50.295Z,2.40
2018-04-27T04:50:56.120Z,2.50
2018-04-27T04:54:02.073Z,2.60
2018-04-27T04:57:08.183Z,2.60
2018-04-27T05:00:14.232Z,2.70
2018-04-27T05:03:20.378Z,2.70
2018-04-27T05:06:26.184Z,2.80
2018-04-27T05:09:32.205Z,2.90
2018-04-27T05:12:38.245Z,3.20
2018-04-27T05:15:44.196Z,3.20
2018-04-27T05:18:56.207Z,3.80
2018-04-27T05:22:02.384Z,3.80
2018-04-27T05:25:08.274Z,4.10
2018-04-27T05:28:14.369Z,4.30
2018-04-27T05:31:39.744Z,4.40
2018-04-27T05:34:45.903Z,4.30
2018-04-27T05:37:51.871Z,4.60
2018-04-27T05:41:01.631Z,5.00
2018-04-27T05:44:07.452Z,5.00
2018-04-27T05:47:13.215Z,5.30
2018-04-27T05:50:19.096Z,5.50
2018-04-27T05:53:25.271Z,5.70
2018-04-27T05:56:31.418Z,5.80
2018-04-27T05:59:37.284Z,5.90
2018-04-27T06:02:43.377Z,6.10
2018-04-27T06:05:49.010Z,6.10
2018-04-27T06:08:54.914Z,6.50
2018-04-27T06:12:00.916Z,6.50
2018-04-27T06:15:06.990Z,6.60
2018-04-27T06:18:13.116Z,6.80
2018-04-27T06:21:19.212Z,7.00
2018-04-27T06:24:25.289Z,7.10
2018-04-27T06:27:31.412Z,7.40
2018-04-27T06:30:37.243Z,7.60
2018-04-27T06:33:43.067Z,7.70
2018-04-27T06:36:48.920Z,7.80
2018-04-27T06:39:54.899Z,7.90
2018-04-27T06:43:00.690Z,8.00
2018-04-27T06:46:06.494Z,8.10
2018-04-27T06:49:11.691Z,8.20
2018-04-27T06:52:17.434Z,8.40
2018-04-27T06:55:27.314Z,8.60
2018-04-27T06:58:32.969Z,8.60
2018-04-27T07:01:48.762Z,8.70
2018-04-27T07:04:54.886Z,8.90
2018-04-27T07:08:00.822Z,9.20
2018-04-27T07:11:06.886Z,9.60
2018-04-27T07:14:13.005Z,9.50
2018-04-27T07:17:18.827Z,10.00
2018-04-27T07:20:24.782Z,10.00
2018-04-27T07:23:30.752Z,10.20
2018-04-27T07:26:36.716Z,10.50
2018-04-27T07:29:42.570Z,11.20
2018-04-27T07:32:48.536Z,12.20
2018-04-27T07:35:55.556Z,12.90
2018-04-27T07:39:01.575Z,14.10
2018-04-27T07:42:07.303Z,14.00
2018-04-27T07:45:13.620Z,13.90
2018-04-27T07:48:19.666Z,13.90
2018-04-27T07:51:25.841Z,14.40
2018-04-27T07:54:32.520Z,14.30
2018-04-27T07:57:39.259Z,14.70
2018-04-27T08:00:45.317Z,15.10
2018-04-27T08:03:51.446Z,15.50
2018-04-27T08:06:57.238Z,15.70
2018-04-27T08:10:04.213Z,15.60
2018-04-27T08:13:13.111Z,15.60
2018-04-27T08:16:19.039Z,15.50
2018-04-27T08:19:25.074Z,15.20
2018-04-27T08:22:30.952Z,15.20
2018-04-27T08:25:37.943Z,15.10
2018-04-27T08:28:44.984Z,15.30
2018-04-27T08:31:51.133Z,15.30
2018-04-27T08:34:57.161Z,15.80
2018-04-27T08:38:03.183Z,15.90
2018-04-27T08:41:09.484Z,16.50
2018-04-27T08:44:14.641Z,16.50
2018-04-27T08:47:20.693Z,16.70
2018-04-27T08:50:26.697Z,16.80
2018-04-27T08:53:32.796Z,17.20
2018-04-27T08:56:38.790Z,17.50
2018-04-27T08:59:44.874Z,17.20
2018-04-27T09:02:50.844Z,17.40
2018-04-27T09:05:56.700Z,17.80
2018-04-27T09:09:02.822Z,18.00
2018-04-27T09:12:08.860Z,17.80
2018-04-27T09:15:15.825Z,17.80
2018-04-27T09:18:21.110Z,18.10
2018-04-27T09:21:26.209Z,18.40
2018-04-27T09:24:32.218Z,18.70
2018-04-27T09:27:38.314Z,17.80
2018-04-27T09:30:44.405Z,17.70
2018-04-27T09:33:50.838Z,18.10
2018-04-27T09:36:56.582Z,17.80
2018-04-27T09:40:02.669Z,18.00
2018-04-27T09:43:08.681Z,18.10
2018-04-27T09:46:14.742Z,18.40
2018-04-27T09:49:20.888Z,18.70
2018-04-27T09:52:27.378Z,18.40
2018-04-27T09:55:34.043Z,18.40
2018-04-27T09:58:39.984Z,18.90
2018-04-27T10:01:46.098Z,18.90
2018-04-27T10:04:52.022Z,19.60
2018-04-27T10:07:58.169Z,19.40
2018-04-27T10:11:04.175Z,19.70
2018-04-27T10:14:10.543Z,20.70
2018-04-27T10:17:17.374Z,20.70
2018-04-27T10:20:23.485Z,19.80
2018-04-27T10:23:29.177Z,19.50
2018-04-27T10:26:37.128Z,20.30
2018-04-27T10:29:43.343Z,19.90
2018-04-27T10:32:49.356Z,19.50
2018-04-27T10:35:55.285Z,19.50
2018-04-27T10:39:02.386Z,19.60
2018-04-27T10:42:08.329Z,19.80
2018-04-27T10:45:14.188Z,19.80
2018-04-27T10:48:20.255Z,20.60
2018-04-27T10:51:26.285Z,20.50
2018-04-27T10:54:32.358Z,21.30
2018-04-27T10:57:38.146Z,22.30
2018-04-27T11:03:19.302Z,22.70
2018-04-27T11:06:25.244Z,22.70
2018-04-27T11:09:33.303Z,22.40
2018-04-27T11:12:42.090Z,22.40
2018-04-27T11:15:49.477Z,23.10
2018-04-27T11:18:56.244Z,23.30
2018-04-27T11:22:02.281Z,23.50
2018-04-27T11:25:07.866Z,24.20
2018-04-27T11:28:15.040Z,24.30
2018-04-27T11:31:21.981Z,24.70
2018-04-27T11:34:27.251Z,23.60
2018-04-27T11:37:33.269Z,23.30
2018-04-27T11:40:39.360Z,24.10
2018-04-27T11:43:45.158Z,24.40
2018-04-27T11:46:51.481Z,25.20
2018-04-27T11:49:57.620Z,25.00
2018-04-27T11:53:05.679Z,25.70
2018-04-27T11:56:12.665Z,25.70
2018-04-27T11:59:18.572Z,27.10
2018-04-27T12:02:24.765Z,25.50
2018-04-27T12:05:30.754Z,24.80
2018-04-27T12:08:36.653Z,24.70
2018-04-27T12:11:43.033Z,24.80
2018-04-27T12:14:49.530Z,25.50
2018-04-27T12:17:55.541Z,25.40
2018-04-27T12:21:01.485Z,26.40
2018-04-27T12:24:07.460Z,25.90
2018-04-27T12:27:14.737Z,25.40
2018-04-27T12:30:20.728Z,26.70
2018-04-27T12:33:26.794Z,26.10
2018-04-27T12:36:34.009Z,26.80
2018-04-27T12:39:40.104Z,26.50
2018-04-27T12:42:45.944Z,26.50
2018-04-27T12:45:52.032Z,26.20
2018-04-27T12:48:58.160Z,26.40
2018-04-27T12:52:04.255Z,26.00
2018-04-27T12:55:10.374Z,25.70
2018-04-27T12:58:20.184Z,26.60
2018-04-27T13:01:26.622Z,26.90
2018-04-27T13:04:32.595Z,26.20
2018-04-27T13:07:38.697Z,27.70
2018-04-27T13:10:44.927Z,27.70
2018-04-27T13:13:51.365Z,29.10
2018-04-27T13:16:59.427Z,28.20
2018-04-27T13:20:06.874Z,28.20
2018-04-27T13:23:13.644Z,28.30
2018-04-27T13:26:20.615Z,29.60
2018-04-27T13:29:27.218Z,30.10
2018-04-27T13:32:33.366Z,30.20
2018-04-27T13:35:39.552Z,29.70
2018-04-27T13:38:46.453Z,29.10
2018-04-27T13:41:52.601Z,29.50
2018-04-27T13:44:59.953Z,30.10
2018-04-27T13:48:06.660Z,30.10
2018-04-27T13:51:13.765Z,30.10
2018-04-27T13:54:19.968Z,30.90
2018-04-27T13:57:26.792Z,30.90
2018-04-27T14:00:32.650Z,31.60
2018-04-27T14:03:39.963Z,31.80
2018-04-27T14:06:47.049Z,31.70
2018-04-27T14:09:53.506Z,30.30
2018-04-27T14:13:00.596Z,31.00
2018-04-27T14:16:08.457Z,30.30
2018-04-27T14:19:13.934Z,30.20
2018-04-27T14:22:21.693Z,29.30
2018-04-27T14:25:29.495Z,29.60
2018-04-27T14:28:38.617Z,29.80
2018-04-27T14:31:45.107Z,30.70
2018-04-27T14:34:53.083Z,31.80
2018-04-27T14:38:01.361Z,31.50
2018-04-27T14:41:08.207Z,31.00
2018-04-27T14:44:15.961Z,30.30
2018-04-27T14:47:22.726Z,29.90
2018-04-27T14:50:29.658Z,31.30
2018-04-27T14:53:36.167Z,31.30
2018-04-27T14:56:42.077Z,30.50
2018-04-27T14:59:48.731Z,29.90
2018-04-27T15:02:55.435Z,30.10
2018-04-27T15:06:01.638Z,30.10
2018-04-27T15:09:08.387Z,30.20
2018-04-27T15:12:16.031Z,30.80
2018-04-27T15:15:23.182Z,30.50
2018-04-27T15:18:29.459Z,30.50
2018-04-27T15:21:35.468Z,29.90
2018-04-27T15:24:41.668Z,29.90
2018-04-27T15:27:48.219Z,30.30
2018-04-27T15:30:54.295Z,30.30
2018-04-27T15:34:00.405Z,30.10
2018-04-27T15:37:08.404Z,30.60
2018-04-27T15:40:16.756Z,30.60
2018-04-27T15:43:24.271Z,31.00
2018-04-27T15:46:33.704Z,31.20
2018-04-27T15:49:40.873Z,31.10
2018-04-27T15:52:46.985Z,31.00
2018-04-27T15:55:53.589Z,30.30
2018-04-27T15:58:59.520Z,29.90
2018-04-27T16:02:05.239Z,29.90
2018-04-27T16:05:10.455Z,30.20
2018-04-27T16:08:16.562Z,29.70
2018-04-27T16:11:22.806Z,29.00
2018-04-27T16:14:29.572Z,29.30
2018-04-27T16:17:35.421Z,29.70
2018-04-27T16:20:42.540Z,30.20
2018-04-27T16:23:50.252Z,29.50
2018-04-27T16:26:56.374Z,29.50
2018-04-27T16:30:02.508Z,29.40
2018-04-27T16:33:07.901Z,27.50
2018-04-27T16:36:14.096Z,25.00
2018-04-27T16:39:20.498Z,25.00
2018-04-27T16:42:26.619Z,23.40
2018-04-27T16:45:32.573Z,22.70
2018-04-27T16:48:38.704Z,22.60
2018-04-27T16:51:44.969Z,22.30
2018-04-27T16:54:51.187Z,21.60
2018-04-27T16:57:56.414Z,21.50
2018-04-27T17:01:02.647Z,21.30
2018-04-27T17:04:08.842Z,21.00
2018-04-27T17:07:15.685Z,20.90
2018-04-27T17:10:21.697Z,20.70
2018-04-27T17:13:27.916Z,20.30
2018-04-27T17:16:35.096Z,19.80
2018-04-27T17:19:42.409Z,19.80
2018-04-27T17:22:48.735Z,19.70
2018-04-27T17:25:56.000Z,19.30
2018-04-27T17:29:03.121Z,19.10
2018-04-27T17:32:09.455Z,19.10
2018-04-27T17:35:16.613Z,19.00
2018-04-27T17:38:23.681Z,18.80
2018-04-27T17:41:30.051Z,18.40
2018-04-27T17:44:36.469Z,18.30
2018-04-27T17:47:42.334Z,18.10
2018-04-27T17:50:48.463Z,17.70
2018-04-27T17:53:54.580Z,17.60
2018-04-27T17:57:00.835Z,17.40
2018-04-27T18:00:07.147Z,17.20
2018-04-27T18:03:13.236Z,17.10
2018-04-27T18:06:18.369Z,16.80
2018-04-27T18:09:25.372Z,16.50
2018-04-27T18:12:31.448Z,16.50
2018-04-27T18:15:37.721Z,16.20
2018-04-27T18:18:45.933Z,15.90
2018-04-27T18:21:52.830Z,15.70
2018-04-27T18:24:58.863Z,15.50
2018-04-27T18:28:04.908Z,15.30
2018-04-27T18:31:11.223Z,14.90
2018-04-27T18:34:17.280Z,14.60
2018-04-27T18:37:23.730Z,14.60
2018-04-27T18:40:29.451Z,14.50
2018-04-27T18:43:36.861Z,14.40
2018-04-27T18:46:53.611Z,14.20
2018-04-27T18:50:03.045Z,14.00
2018-04-27T18:53:11.187Z,14.00
2018-04-27T18:56:18.798Z,13.80
2018-04-27T18:59:26.827Z,13.70
2018-04-27T19:02:33.565Z,13.60
2018-04-27T19:05:40.992Z,13.50
2018-04-27T19:08:48.869Z,13.70
2018-04-27T19:11:54.852Z,13.80
2018-04-27T19:15:02.138Z,13.90
2018-04-27T19:18:13.269Z,13.70
2018-04-27T19:21:19.255Z,13.80
2018-04-27T19:24:25.264Z,13.80
2018-04-27T19:27:34.161Z,13.70
2018-04-27T19:30:44.274Z,13.50
2018-04-27T19:33:51.031Z,13.40
2018-04-27T19:36:57.864Z,13.40
2018-04-27T19:40:03.754Z,13.30
2018-04-27T19:43:10.995Z,13.30
2018-04-27T19:46:17.790Z,13.30
2018-04-27T19:49:25.851Z,13.20
2018-04-27T19:52:33.687Z,13.30
2018-04-27T19:55:40.852Z,13.40
2018-04-27T19:58:51.041Z,13.40
2018-04-27T20:01:58.069Z,13.40
2018-04-27T20:05:06.192Z,13.60
2018-04-27T20:08:12.293Z,13.60
2018-04-27T20:11:19.462Z,13.60
2018-04-27T20:14:25.626Z,13.60
2018-04-27T20:17:40.037Z,13.80
2018-04-27T20:20:47.702Z,13.80
2018-04-27T20:23:54.798Z,13.70
2018-04-27T20:27:01.836Z,13.80
2018-04-27T20:30:09.912Z,13.70
2018-04-27T20:33:15.675Z,13.70
2018-04-27T20:36:23.118Z,13.50
2018-04-27T20:39:29.126Z,13.50
2018-04-27T20:42:36.849Z,13.60
2018-04-27T20:45:48.021Z,13.60
2018-04-27T20:48:54.796Z,13.70
2018-04-27T20:52:01.226Z,13.70
2018-04-27T20:55:10.188Z,13.60
2018-04-27T20:58:16.268Z,13.50
2018-04-27T21:01:24.327Z,13.30
2018-04-27T21:04:31.273Z,13.10
2018-04-27T21:07:38.369Z,13.10
2018-04-27T21:10:45.453Z,12.90
2018-04-27T21:13:54.064Z,12.70
2018-04-27T21:17:00.076Z,12.50
2018-04-27T21:20:06.200Z,12.40
2018-04-27T21:23:11.463Z,12.20
2018-04-27T21:26:18.714Z,11.90
2018-04-27T21:29:24.632Z,11.80
2018-04-27T21:32:30.868Z,11.90
2018-04-27T21:35:42.851Z,11.80
2018-04-27T21:39:02.250Z,11.80
2018-04-27T21:42:22.950Z,11.70
2018-04-27T21:45:29.047Z,11.60
2018-04-27T21:48:47.127Z,11.60
2018-04-27T21:51:59.287Z,11.50
2018-04-27T21:55:04.611Z,11.40
2018-04-27T21:58:21.698Z,11.20
2018-04-27T22:01:30.485Z,11.10
2018-04-27T22:04:39.896Z,11.10
2018-04-27T22:07:51.913Z,11.10
2018-04-27T22:10:57.833Z,11.00
2018-04-27T22:14:05.824Z,11.00
2018-04-27T22:20:52.286Z,11.10
2018-04-27T22:24:03.741Z,11.00
2018-04-27T22:27:24.308Z,10.90
2018-04-27T22:30:48.811Z,10.90
2018-04-27T22:34:04.421Z,10.60
2018-04-27T22:37:11.514Z,10.40
2018-04-27T22:43:52.875Z,10.40
2018-04-27T22:46:59.935Z,10.40
2018-04-27T22:50:06.554Z,10.40
2018-04-27T22:56:38.498Z,11.10
2018-04-27T22:59:47.590Z,12.60
2018-04-27T23:02:55.313Z,13.20
2018-04-27T23:06:04.555Z,13.20
2018-04-27T23:09:16.180Z,13.70
2018-04-27T23:12:25.575Z,14.00
2018-04-27T23:15:34.010Z,14.40
2018-04-27T23:18:46.026Z,14.70
2018-04-27T23:21:58.941Z,14.90
2018-04-27T23:28:40.482Z,15.10
2018-04-27T23:31:46.484Z,14.90
2018-04-27T23:34:52.951Z,14.90
2018-04-27T23:38:01.263Z,14.20
2018-04-27T23:41:09.156Z,14.20
2018-04-27T23:44:15.157Z,13.80
2018-04-27T23:47:21.250Z,13.50
2018-04-27T23:50:27.303Z,13.00
2018-04-27T23:53:34.281Z,12.70
2018-04-27T23:56:45.328Z,12.70
